Map

Track Data

SID SEASON NUMBER BASIN SUBBASIN NAME ISO_TIME NATURE LAT LON WMO_WIND WMO_PRES WMO_AGENCY TRACK_TYPE DIST2LAND LANDFALL IFLAG USA_AGENCY USA_ATCF_ID USA_LAT USA_LON USA_RECORD USA_STATUS USA_WIND USA_PRES USA_SSHS USA_R34_NE USA_R34_SE USA_R34_SW USA_R34_NW USA_R50_NE USA_R50_SE USA_R50_SW USA_R50_NW USA_R64_NE USA_R64_SE USA_R64_SW USA_R64_NW USA_POCI USA_ROCI USA_RMW USA_EYE TOKYO_LAT TOKYO_LON TOKYO_GRADE TOKYO_WIND TOKYO_PRES TOKYO_R50_DIR TOKYO_R50_LONG TOKYO_R50_SHORT TOKYO_R30_DIR TOKYO_R30_LONG TOKYO_R30_SHORT TOKYO_LAND CMA_LAT CMA_LON CMA_CAT CMA_WIND CMA_PRES HKO_LAT HKO_LON HKO_CAT HKO_WIND HKO_PRES NEWDELHI_LAT NEWDELHI_LON NEWDELHI_GRADE NEWDELHI_WIND NEWDELHI_PRES NEWDELHI_CI NEWDELHI_DP NEWDELHI_POCI REUNION_LAT REUNION_LON REUNION_TYPE REUNION_WIND REUNION_PRES REUNION_TNUM REUNION_CI REUNION_RMW REUNION_R34_NE REUNION_R34_SE REUNION_R34_SW REUNION_R34_NW REUNION_R50_NE REUNION_R50_SE REUNION_R50_SW REUNION_R50_NW REUNION_R64_NE REUNION_R64_SE REUNION_R64_SW REUNION_R64_NW BOM_LAT BOM_LON BOM_TYPE BOM_WIND BOM_PRES BOM_TNUM BOM_CI BOM_RMW BOM_R34_NE BOM_R34_SE BOM_R34_SW BOM_R34_NW BOM_R50_NE BOM_R50_SE BOM_R50_SW BOM_R50_NW BOM_R64_NE BOM_R64_SE BOM_R64_SW BOM_R64_NW BOM_ROCI BOM_POCI BOM_EYE BOM_POS_METHOD BOM_PRES_METHOD NADI_LAT NADI_LON NADI_CAT NADI_WIND NADI_PRES WELLINGTON_LAT WELLINGTON_LON WELLINGTON_WIND WELLINGTON_PRES DS824_LAT DS824_LON DS824_STAGE DS824_WIND DS824_PRES TD9636_LAT TD9636_LON TD9636_STAGE TD9636_WIND TD9636_PRES TD9635_LAT TD9635_LON TD9635_WIND TD9635_PRES TD9635_ROCI NEUMANN_LAT NEUMANN_LON NEUMANN_CLASS NEUMANN_WIND NEUMANN_PRES MLC_LAT MLC_LON MLC_CLASS MLC_WIND MLC_PRES USA_GUST BOM_GUST BOM_GUST_PER REUNION_GUST REUNION_GUST_PER USA_SEAHGT USA_SEARAD_NE USA_SEARAD_SE USA_SEARAD_SW USA_SEARAD_NW STORM_SPEED STORM_DIR
1988265N13263 1988 85 EP MM LANE 1988-09-21 06:00:00 TS 12.7000 -97.5000 25 1010 hurdat_epa main 338 331 O_________O___ hurdat_epa EP121988 12.7000 -97.5000 TD 25 1010 -1 12.7000 -97.5000 1 25 10 292
1988265N13263 1988 85 EP MM LANE 1988-09-21 09:00:00 TS 12.8906 -97.9832 main 337 331 P_________P___ EP121988 12.8876 -97.9824 TD 27 1009 -1 12.8993 -97.9853 1 27 11 292
1988265N13263 1988 85 EP MM LANE 1988-09-21 12:00:00 TS 13.1000 -98.5000 30 1008 hurdat_epa main 333 324 O_________O___ hurdat_epa EP121988 13.1000 -98.5000 TD 30 1008 -1 13.1000 -98.5000 1 30 12 293
1988265N13263 1988 85 EP MM LANE 1988-09-21 15:00:00 TS 13.3386 -99.0747 main 333 320 P_________P___ EP121988 13.3499 -99.0775 TD 32 1006 -1 13.3048 -99.0662 1 32 13 292
1988265N13263 1988 85 EP MM LANE 1988-09-21 18:00:00 TS 13.5798 -99.6948 35 1005 hurdat_epa main 324 322 O_________P___ hurdat_epa EP121988 13.6000 -99.7000 TS 35 1005 0 13.5190 -99.6792 1 35 13 290
1988265N13263 1988 85 EP MM LANE 1988-09-21 21:00:00 TS 13.7814 -100.333 main 330 327 P_________P___ EP121988 13.7923 -100.335 TS 37 1004 0 13.7487 -100.328 1 37 13 288
1988265N13263 1988 85 EP MM LANE 1988-09-22 00:00:00 TS 14.0000 -101.000 40 1003 hurdat_epa main 332 332 O_________O___ hurdat_epa EP121988 14.0000 -101.000 TS 40 1003 0 14.0000 -101.000 2 40 14 291
1988265N13263 1988 85 EP MM LANE 1988-09-22 03:00:00 TS 14.2853 -101.695 main 338 328 P_________P___ EP121988 14.2849 -101.693 TS 42 1001 0 14.2867 -101.702 2 42 15 294
1988265N13263 1988 85 EP MM LANE 1988-09-22 06:00:00 TS 14.5982 -102.406 45 1000 hurdat_epa main 332 332 O_________P___ hurdat_epa EP121988 14.6000 -102.400 TS 45 1000 0 14.5928 -102.422 2 45 15 294
1988265N13263 1988 85 EP MM LANE 1988-09-22 09:00:00 TS 14.9006 -103.125 main 343 334 P_________P___ EP121988 14.9000 -103.123 TS 47 999 0 14.9024 -103.131 2 47 15 294
1988265N13263 1988 85 EP MM LANE 1988-09-22 12:00:00 TS 15.2000 -103.800 50 998 hurdat_epa main 338 324 O_________O___ hurdat_epa EP121988 15.2000 -103.800 TS 50 998 0 15.2000 -103.800 2 50 14 297
1988265N13263 1988 85 EP MM LANE 1988-09-22 15:00:00 TS 15.5044 -104.375 main 327 312 P_________P___ EP121988 15.5147 -104.373 TS 52 996 0 15.4737 -104.380 2 52 12 299
1988265N13263 1988 85 EP MM LANE 1988-09-22 18:00:00 TS 15.7832 -104.905 55 994 hurdat_epa main 316 316 O_________P___ hurdat_epa EP121988 15.8000 -104.900 TS 55 994 0 15.7328 -104.921 2 55 11 296
1988265N13263 1988 85 EP MM LANE 1988-09-22 21:00:00 TS 16.0050 -105.445 main 327 327 P_________P___ EP121988 16.0148 -105.443 TS 57 992 0 15.9756 -105.451 2 57 11 292
1988265N13263 1988 85 EP MM LANE 1988-09-23 00:00:00 TS 16.2000 -106.000 60 991 hurdat_epa main 354 354 O_________O___ hurdat_epa EP121988 16.2000 -106.000 TS 60 991 0 16.2000 -106.000 2 60 12 290
1988265N13263 1988 85 EP MM LANE 1988-09-23 03:00:00 TS 16.4088 -106.601 main 366 362 P_________P___ EP121988 16.4075 -106.600 TS 62 989 0 16.4130 -106.603 2 62 12 289
1988265N13263 1988 85 EP MM LANE 1988-09-23 06:00:00 TS 16.6000 -107.200 65 987 hurdat_epa main 386 386 O_________O___ hurdat_epa EP121988 16.6000 -107.200 HU 65 987 1 16.6000 -107.200 3 65 12 288
1988265N13263 1988 85 EP MM LANE 1988-09-23 09:00:00 TS 16.7650 -107.771 main 414 414 P_________P___ EP121988 16.7649 -107.773 HU 70 983 1 16.7653 -107.766 3 70 11 286
1988265N13263 1988 85 EP MM LANE 1988-09-23 12:00:00 TS 16.9000 -108.300 75 980 hurdat_epa main 445 445 O_________O___ hurdat_epa EP121988 16.9000 -108.300 HU 75 980 1 16.9000 -108.300 4 75 10 284
1988265N13263 1988 85 EP MM LANE 1988-09-23 15:00:00 TS 17.0112 -108.770 main 477 477 P_________P___ EP121988 17.0147 -108.758 HU 80 977 1 17.0006 -108.808 4 78 9 282
1988265N13263 1988 85 EP MM LANE 1988-09-23 18:00:00 TS 17.0933 -109.222 85 974 hurdat_epa main 503 503 O_________P___ hurdat_epa EP121988 17.1000 -109.200 HU 85 974 2 17.0733 -109.288 4 82 9 279
1988265N13263 1988 85 EP MM LANE 1988-09-23 21:00:00 TS 17.1461 -109.712 main 547 547 P_________P___ EP121988 17.1500 -109.700 HU 87 972 2 17.1344 -109.749 4 86 9 277
1988265N13263 1988 85 EP MM LANE 1988-09-24 00:00:00 TS 17.2000 -110.200 90 970 hurdat_epa main 586 586 O_________O___ hurdat_epa EP121988 17.2000 -110.200 HU 90 970 2 17.2000 -110.200 4 90 9 279
1988265N13263 1988 85 EP MM LANE 1988-09-24 03:00:00 TS 17.2953 -110.653 main 625 622 P_________P___ EP121988 17.2923 -110.658 HU 90 970 2 17.3043 -110.641 4 88 9 283
1988265N13263 1988 85 EP MM LANE 1988-09-24 06:00:00 TS 17.4035 -111.094 90 970 hurdat_epa main 625 618 O_________P___ hurdat_epa EP121988 17.4000 -111.100 HU 90 970 2 17.4141 -111.077 4 87 9 284
1988265N13263 1988 85 EP MM LANE 1988-09-24 09:00:00 TS 17.5097 -111.533 main 623 618 P_________P___ EP121988 17.5073 -111.535 HU 87 970 2 17.5168 -111.525 4 86 9 283
1988265N13263 1988 85 EP MM LANE 1988-09-24 12:00:00 TS 17.6000 -112.000 85 971 hurdat_epa main 628 628 O_________O___ hurdat_epa EP121988 17.6000 -112.000 HU 85 971 2 17.6000 -112.000 4 85 10 279
1988265N13263 1988 85 EP MM LANE 1988-09-24 15:00:00 TS 17.6624 -112.532 main 637 637 P_________P___ EP121988 17.6650 -112.535 HU 82 972 1 17.6546 -112.521 4 83 10 275
1988265N13263 1988 85 EP MM LANE 1988-09-24 18:00:00 TS 17.6968 -113.093 80 974 hurdat_epa main 665 665 O_________P___ hurdat_epa EP121988 17.7000 -113.100 HU 80 974 1 17.6874 -113.070 4 82 11 272
1988265N13263 1988 85 EP MM LANE 1988-09-24 21:00:00 TS 17.7059 -113.646 main 692 692 P_________P___ EP121988 17.7073 -113.650 HU 80 975 1 17.7014 -113.634 4 81 11 270
1988265N13263 1988 85 EP MM LANE 1988-09-25 00:00:00 TS 17.7000 -114.200 80 977 hurdat_epa main 727 727 O_________O___ hurdat_epa EP121988 17.7000 -114.200 HU 80 977 1 17.7000 -114.200 4 80 11 270
1988265N13263 1988 85 EP MM LANE 1988-09-25 03:00:00 TS 17.7017 -114.749 main 760 760 P_________P___ EP121988 17.7073 -114.750 HU 77 978 1 17.6848 -114.746 4 78 10 269
1988265N13263 1988 85 EP MM LANE 1988-09-25 06:00:00 TS 17.6892 -115.298 75 979 hurdat_epa main 802 802 O_________P___ hurdat_epa EP121988 17.7000 -115.300 HU 75 979 1 17.6568 -115.293 4 77 10 267
1988265N13263 1988 85 EP MM LANE 1988-09-25 09:00:00 TS 17.6436 -115.837 main 846 846 P_________P___ EP121988 17.6497 -115.835 HU 75 980 1 17.6254 -115.843 4 76 11 265
1988265N13263 1988 85 EP MM LANE 1988-09-25 12:00:00 TS 17.6000 -116.400 75 981 hurdat_epa main 892 892 O_________O___ hurdat_epa EP121988 17.6000 -116.400 HU 75 981 1 17.6000 -116.400 4 75 11 267
1988265N13263 1988 85 EP MM LANE 1988-09-25 15:00:00 TS 17.5926 -117.036 main 940 940 P_________P___ EP121988 17.5926 -117.057 HU 72 982 1 17.5925 -116.972 4 73 12 270
1988265N13263 1988 85 EP MM LANE 1988-09-25 18:00:00 TS 17.5980 -117.662 70 983 hurdat_epa main 983 983 O_________P___ hurdat_epa EP121988 17.6000 -117.700 HU 70 983 1 17.5921 -117.550 4 72 11 270
1988265N13263 1988 85 EP MM LANE 1988-09-25 21:00:00 TS 17.5986 -118.193 main 1014 1014 P_________P___ EP121988 17.5996 -118.215 HU 70 983 1 17.5956 -118.128 4 71 10 270
1988265N13263 1988 85 EP MM LANE 1988-09-26 00:00:00 TS 17.6000 -118.700 70 984 hurdat_epa main 1047 1047 O_________O___ hurdat_epa EP121988 17.6000 -118.700 HU 70 984 1 17.6000 -118.700 4 70 10 270
1988265N13263 1988 85 EP MM LANE 1988-09-26 03:00:00 TS 17.5947 -119.247 main 1082 1082 P_________P___ EP121988 17.5999 -119.243 HU 70 984 1 17.5792 -119.262 4 68 11 269
1988265N13263 1988 85 EP MM LANE 1988-09-26 06:00:00 TS 17.5905 -119.804 70 985 hurdat_epa main 1125 1125 O_________P___ hurdat_epa EP121988 17.6000 -119.800 HU 70 985 1 17.5619 -119.816 4 67 11 269
1988265N13263 1988 85 EP MM LANE 1988-09-26 09:00:00 TS 17.5795 -120.353 main 1170 1170 P_________P___ EP121988 17.5849 -120.350 HU 67 985 1 17.5636 -120.362 4 66 10 271
1988265N13263 1988 85 EP MM LANE 1988-09-26 12:00:00 TS 17.6000 -120.900 65 986 hurdat_epa main 1208 1208 O_________O___ hurdat_epa EP121988 17.6000 -120.900 HU 65 986 1 17.6000 -120.900 4 65 11 275
1988265N13263 1988 85 EP MM LANE 1988-09-26 15:00:00 TS 17.6751 -121.452 main 1247 1247 P_________P___ EP121988 17.6774 -121.457 HU 65 987 1 17.6683 -121.436 4 65 11 281
1988265N13263 1988 85 EP MM LANE 1988-09-26 18:00:00 TS 17.7936 -121.991 65 988 hurdat_epa main 1280 1280 O_________P___ hurdat_epa EP121988 17.8000 -122.000 HU 65 988 1 17.7745 -121.965 4 65 10 284
1988265N13263 1988 85 EP MM LANE 1988-09-26 21:00:00 TS 17.9307 -122.502 main 1315 1315 P_________P___ EP121988 17.9348 -122.508 HU 65 988 1 17.9184 -122.487 4 65 10 288
1988265N13263 1988 85 EP MM LANE 1988-09-27 00:00:00 TS 18.1000 -123.000 65 989 hurdat_epa main 1344 1344 O_________O___ hurdat_epa EP121988 18.1000 -123.000 HU 65 989 1 18.1000 -123.000 4 65 10 291
1988265N13263 1988 85 EP MM LANE 1988-09-27 03:00:00 TS 18.2884 -123.499 main 1362 1362 P_________P___ EP121988 18.2774 -123.500 HU 62 990 0 18.3215 -123.495 4 62 10 294
1988265N13263 1988 85 EP MM LANE 1988-09-27 06:00:00 TS 18.5191 -123.996 60 991 hurdat_epa main 1378 1375 O_________P___ hurdat_epa EP121988 18.5000 -124.000 TS 60 991 0 18.5765 -123.985 4 60 11 299
1988265N13263 1988 85 EP MM LANE 1988-09-27 09:00:00 TS 18.8051 -124.490 main 1388 1386 P_________P___ EP121988 18.7923 -124.493 TS 57 992 0 18.8433 -124.483 4 57 11 301
1988265N13263 1988 85 EP MM LANE 1988-09-27 12:00:00 TS 19.1000 -125.000 55 994 hurdat_epa main 1400 1399 O_________O___ hurdat_epa EP121988 19.1000 -125.000 TS 55 994 0 19.1000 -125.000 2 55 11 299
1988265N13263 1988 85 EP MM LANE 1988-09-27 15:00:00 TS 19.3598 -125.538 main 1414 1414 P_________P___ EP121988 19.3723 -125.535 TS 52 995 0 19.3221 -125.546 2 52 11 295
1988265N13263 1988 85 EP MM LANE 1988-09-27 18:00:00 TS 19.5823 -126.103 50 996 hurdat_epa main 1446 1446 O_________P___ hurdat_epa EP121988 19.6000 -126.100 TS 50 996 0 19.5294 -126.113 2 50 12 290
1988265N13263 1988 85 EP MM LANE 1988-09-27 21:00:00 TS 19.7597 -126.689 main 1480 1480 P_________P___ EP121988 19.7723 -126.685 TS 47 998 0 19.7220 -126.699 2 47 12 286
1988265N13263 1988 85 EP MM LANE 1988-09-28 00:00:00 TS 19.9000 -127.300 45 1000 hurdat_epa main 1522 1522 O_________O___ hurdat_epa EP121988 19.9000 -127.300 TS 45 1000 0 19.9000 -127.300 2 45 12 282
1988265N13263 1988 85 EP MM LANE 1988-09-28 03:00:00 TS 20.0073 -127.944 main 1566 1566 P_________P___ EP121988 19.9924 -127.950 TS 42 1001 0 20.0521 -127.924 2 42 12 280
1988265N13263 1988 85 EP MM LANE 1988-09-28 06:00:00 TS 20.1231 -128.590 40 1003 hurdat_epa main 1620 1620 O_________P___ hurdat_epa EP121988 20.1000 -128.600 TS 40 1003 0 20.1924 -128.559 2 40 12 284
1988265N13263 1988 85 EP MM LANE 1988-09-28 09:00:00 TS 20.2977 -129.203 main 1660 1660 P_________P___ EP121988 20.2847 -129.208 TS 37 1004 0 20.3365 -129.189 2 37 12 288
1988265N13263 1988 85 EP MM LANE 1988-09-28 12:00:00 TS 20.5000 -129.800 35 1006 hurdat_epa main 1701 1701 O_________O___ hurdat_epa EP121988 20.5000 -129.800 TS 35 1006 0 20.5000 -129.800 2 35 12 290
1988265N13263 1988 85 EP MM LANE 1988-09-28 15:00:00 TS 20.6960 -130.403 main 1743 1743 P_________P___ EP121988 20.6924 -130.415 TS 32 1007 -1 20.7065 -130.368 2 33 12 290
1988265N13263 1988 85 EP MM LANE 1988-09-28 18:00:00 TS 20.9084 -130.979 30 1008 hurdat_epa main 1787 1787 O_________P___ hurdat_epa EP121988 20.9000 -131.000 TD 30 1008 -1 20.9337 -130.915 2 32 11 294
1988265N13263 1988 85 EP MM LANE 1988-09-28 21:00:00 TS 21.1544 -131.489 main 1818 1818 P_________P___ EP121988 21.1496 -131.500 TD 30 1009 -1 21.1691 -131.455 2 31 11 297
1988265N13263 1988 85 EP MM LANE 1988-09-29 00:00:00 TS 21.4000 -132.000 30 1010 hurdat_epa main 1835 1835 O_________O___ hurdat_epa EP121988 21.4000 -132.000 TD 30 1010 -1 21.4000 -132.000 1 30 11 294
1988265N13263 1988 85 EP MM LANE 1988-09-29 03:00:00 TS 21.6093 -132.585 main 1854 1851 P_________P___ EP121988 21.6075 -132.593 TD 30 1011 -1 21.6146 -132.560 1 28 12 290
1988265N13263 1988 85 EP MM LANE 1988-09-29 06:00:00 TS 21.8054 -133.182 30 1012 hurdat_epa main 1874 1872 O_________P___ hurdat_epa EP121988 21.8000 -133.200 TD 30 1012 -1 21.8215 -133.128 1 27 11 290
1988265N13263 1988 85 EP MM LANE 1988-09-29 09:00:00 TS 22.0098 -133.739 main 1889 1889 P_________P___ EP121988 22.0072 -133.750 TD 27 1012 -1 22.0177 -133.707 1 26 11 291
1988265N13263 1988 85 EP MM LANE 1988-09-29 12:00:00 TS 22.2000 -134.300 25 1012 hurdat_epa main 1913 1913 O_________O___ hurdat_epa EP121988 22.2000 -134.300 TD 25 1012 -1 22.2000 -134.300 1 25 11 288
1988265N13263 1988 85 EP MM LANE 1988-09-29 15:00:00 TS 22.3580 -134.894 main 1938 1938 P_________P___ EP121988 22.3573 -134.885 TD 25 1013 -1 22.3601 -134.919 1 23 12 285
1988265N13263 1988 85 EP MM LANE 1988-09-29 18:00:00 TS 22.5018 -135.513 25 1014 hurdat_epa main 1973 1969 O_________P___ hurdat_epa EP121988 22.5000 -135.500 TD 25 1014 -1 22.5072 -135.551 1 22 12 284
1988265N13263 1988 85 EP MM LANE 1988-09-29 21:00:00 TS 22.6445 -136.158 main 1959 1901 P_________P___ EP121988 22.6424 -136.150 TD 22 1014 -1 22.6507 -136.182 1 21 12 284
1988265N13263 1988 85 EP MM LANE 1988-09-30 00:00:00 TS 22.8000 -136.800 20 1014 hurdat_epa main 1901 1843 O_________O___ hurdat_epa EP121988 22.8000 -136.800 TD 20 1014 -1 22.8000 -136.800 1 20 12 287
1988265N13263 1988 85 EP MM LANE 1988-09-30 03:00:00 TS 22.9904 -137.410 main 1843 1786 P_________P___ EP121988 22.9998 -137.415 TD 20 1014 -1 22.9625 -137.396 1 20 12 289
1988265N13263 1988 85 EP MM LANE 1988-09-30 06:00:00 TS 23.1840 -137.993 20 1015 hurdat_epa main 1786 1738 O_________P___ hurdat_epa EP121988 23.2000 -138.000 TD 20 1015 -1 23.1362 -137.973 1 20 11 289
1988265N13263 1988 85 EP MM LANE 1988-09-30 09:00:00 TS 23.3514 -138.553 main 1730 1683 P_________P___ EP121988 23.3629 -138.557 TD 20 1015 -1 23.3168 -138.539 1 20 11 287
1988265N13263 1988 85 EP MM LANE 1988-09-30 12:00:00 TS 23.5000 -139.100 20 1015 hurdat_epa main 1683 O_________O___ hurdat_epa EP121988 23.5000 -139.100 TD 20 1015 -1 23.5000 -139.100 1 20 10 286

About IBTrACS Database

This database is a web-friendly format of International Best Track Archive for Climate Stewardship (IBTrACS), a global best track data archive curated by NOAA dating back to 1842.

Updated: 2021-11-26